Time;durP1;ratioP1;P1;durP2;ratioP2;P2;SDS_P1;SDS_P2;PMS_P1;PMS_P2;Temp;Humidity;BMP_temperature;BMP_pressure;BME280_temperature;BME280_humidity;BME280_pressure;Samples;Min_cycle;Max_cycle;Signal;HPM_P1;HPM_P2
2021/08/17 00:00:14;;;;;;;27.77;16.88;;;;;;;19.90;68.19;98962.31;5091963;28;20086;-64
2021/08/17 00:02:41;;;;;;;30.42;16.05;;;;;;;19.88;68.09;98958.34;5091772;28;20040;-65
2021/08/17 00:05:08;;;;;;;33.80;15.82;;;;;;;19.85;68.37;98959.75;5073521;28;20467;-65
2021/08/17 00:07:36;;;;;;;27.77;14.90;;;;;;;19.85;68.58;98956.25;5090468;28;20047;-65
2021/08/17 00:10:06;;;;;;;25.58;14.27;;;;;;;19.85;68.02;98956.25;5090357;28;20080;-65
2021/08/17 00:12:31;;;;;;;28.23;14.75;;;;;;;19.86;67.93;98963.25;5090132;28;20497;-65
2021/08/17 00:14:58;;;;;;;23.13;14.52;;;;;;;19.86;68.20;98976.69;5091117;28;20434;-64
2021/08/17 00:17:24;;;;;;;28.77;14.80;;;;;;;19.85;68.16;98962.44;5091618;28;20043;-64
2021/08/17 00:19:51;;;;;;;27.98;15.00;;;;;;;19.84;68.31;98968.13;5091655;28;20442;-65
2021/08/17 00:22:22;;;;;;;32.85;15.57;;;;;;;19.82;68.32;98959.56;5091531;28;20036;-64
2021/08/17 00:24:49;;;;;;;34.80;15.80;;;;;;;19.78;68.75;98955.91;5090346;28;20078;-65
2021/08/17 00:27:14;;;;;;;28.63;15.27;;;;;;;19.79;67.98;98960.19;5091404;28;20043;-63
2021/08/17 00:29:40;;;;;;;33.33;16.00;;;;;;;19.78;68.18;98967.47;5091634;28;20094;-65
2021/08/17 00:32:06;;;;;;;28.83;14.98;;;;;;;19.80;68.43;98967.16;5091472;28;20040;-65
2021/08/17 00:34:32;;;;;;;29.25;16.23;;;;;;;19.78;68.37;98974.75;5091604;28;20169;-64
2021/08/17 00:36:58;;;;;;;28.13;15.80;;;;;;;19.80;68.71;98977.94;5091448;28;20044;-64
2021/08/17 00:39:26;;;;;;;34.63;16.65;;;;;;;19.81;68.28;98971.44;5091494;28;20066;-64
2021/08/17 00:41:52;;;;;;;29.48;15.18;;;;;;;19.82;68.48;98975.72;5091339;28;20047;-64
2021/08/17 00:44:25;;;;;;;26.65;16.17;;;;;;;19.85;68.25;98967.03;5091369;28;20043;-63
2021/08/17 00:47:00;;;;;;;31.70;15.50;;;;;;;19.86;67.89;98969.41;5090137;28;20048;-64
2021/08/17 00:49:31;;;;;;;27.20;16.35;;;;;;;19.92;67.85;98962.00;5091443;28;20040;-63
2021/08/17 00:52:05;;;;;;;33.08;15.30;;;;;;;19.94;67.77;98965.16;5091111;28;20086;-63
2021/08/17 00:54:31;;;;;;;23.23;13.68;;;;;;;19.96;67.35;98960.28;5091322;28;20052;-64
2021/08/17 00:56:59;;;;;;;28.13;14.40;;;;;;;19.99;67.67;98965.03;5091198;28;20036;-63
2021/08/17 00:59:27;;;;;;;29.73;14.55;;;;;;;20.01;67.68;98951.28;5089591;28;20143;-64
2021/08/17 01:01:53;;;;;;;34.05;15.95;;;;;;;20.03;67.62;98965.19;5093974;28;20040;-65
2021/08/17 01:04:19;;;;;;;25.50;15.70;;;;;;;20.01;67.53;98964.75;5095110;28;20679;-65
2021/08/17 01:06:45;;;;;;;34.58;15.77;;;;;;;20.01;67.74;98962.84;5094728;28;20040;-65
2021/08/17 01:09:11;;;;;;;33.63;15.45;;;;;;;20.03;67.56;98967.91;5093659;28;20577;-63
2021/08/17 01:11:39;;;;;;;28.33;16.38;;;;;;;20.04;67.43;98964.91;5093677;28;20048;-64
2021/08/17 01:14:05;;;;;;;27.35;15.60;;;;;;;20.09;67.45;98978.22;5076097;28;20062;-65
2021/08/17 01:16:35;;;;;;;27.30;15.32;;;;;;;20.15;67.30;98974.28;5094512;28;20036;-64
2021/08/17 01:19:01;;;;;;;27.15;15.10;;;;;;;20.23;67.04;98980.78;5093281;28;20097;-65
2021/08/17 01:21:30;;;;;;;29.33;16.15;;;;;;;20.24;67.50;99009.31;5093206;28;20079;-65
2021/08/17 01:23:57;;;;;;;34.30;16.88;;;;;;;20.11;68.33;99023.66;5093341;28;20096;-64
2021/08/17 01:26:24;;;;;;;23.95;15.05;;;;;;;19.94;68.90;98992.06;5076877;28;20044;-65
2021/08/17 01:28:50;;;;;;;24.63;14.25;;;;;;;19.84;68.50;98960.84;5094409;28;20040;-65
2021/08/17 01:31:16;;;;;;;23.77;14.57;;;;;;;19.83;68.46;98953.09;5094253;28;20062;-65
2021/08/17 01:33:42;;;;;;;19.35;13.43;;;;;;;19.83;68.15;98947.72;5094142;28;20102;-64
2021/08/17 01:36:08;;;;;;;19.48;13.15;;;;;;;19.82;68.28;98960.34;5092949;28;20488;-64
2021/08/17 01:38:47;;;;;;;22.10;13.50;;;;;;;19.80;68.60;98994.06;5092859;28;20537;-65
2021/08/17 01:41:13;;;;;;;24.63;13.02;;;;;;;19.74;68.86;99004.94;5094089;28;20048;-65
2021/08/17 01:43:39;;;;;;;25.45;12.85;;;;;;;19.66;69.89;99005.69;5092772;28;20140;-65
2021/08/17 01:46:06;;;;;;;19.55;12.43;;;;;;;19.60;69.64;99004.19;5093905;28;20522;-65
2021/08/17 01:48:32;;;;;;;23.17;12.40;;;;;;;19.56;69.73;98991.66;5092860;28;20130;-64
2021/08/17 01:51:01;;;;;;;26.92;12.82;;;;;;;19.54;70.07;98993.88;5094189;28;20047;-64
2021/08/17 01:53:29;;;;;;;20.00;12.65;;;;;;;19.54;69.98;98988.50;5093934;28;20039;-64
2021/08/17 01:55:56;;;;;;;17.52;11.48;;;;;;;19.55;69.82;98987.38;5094154;28;20043;-64
2021/08/17 01:58:26;;;;;;;19.30;12.45;;;;;;;19.59;69.91;99001.78;5075812;28;20097;-65
2021/08/17 02:00:52;;;;;;;20.45;12.75;;;;;;;19.59;69.76;99005.28;5092533;28;20119;-64
2021/08/17 02:03:18;;;;;;;22.85;13.13;;;;;;;19.58;69.91;99009.06;5093950;28;20063;-64
2021/08/17 02:05:44;;;;;;;22.30;12.77;;;;;;;19.60;69.64;99011.47;5075682;28;20474;-64
2021/08/17 02:08:12;;;;;;;18.45;12.88;;;;;;;19.63;69.31;99008.16;5093724;28;20040;-64
2021/08/17 02:10:38;;;;;;;17.45;12.18;;;;;;;19.75;68.98;99008.41;5093732;28;20031;-64
2021/08/17 02:13:04;;;;;;;17.95;12.10;;;;;;;19.83;67.94;99020.34;5091995;28;20032;-65
2021/08/17 02:15:31;;;;;;;17.05;11.80;;;;;;;19.91;67.96;99016.88;5093627;28;20214;-64
2021/08/17 02:17:57;;;;;;;16.85;11.35;;;;;;;19.98;67.81;99021.84;5092377;28;20047;-64
2021/08/17 02:20:22;;;;;;;16.00;11.43;;;;;;;20.04;67.85;99031.38;5093804;28;20044;-65
2021/08/17 02:22:49;;;;;;;14.27;10.90;;;;;;;20.10;67.25;99032.84;5093554;28;20528;-65
2021/08/17 02:25:14;;;;;;;18.17;10.75;;;;;;;20.15;66.88;99033.50;5093666;28;20044;-64
2021/08/17 02:27:40;;;;;;;19.75;11.38;;;;;;;20.22;66.82;99035.75;5093459;28;20129;-65
2021/08/17 02:30:07;;;;;;;16.65;11.18;;;;;;;20.20;66.66;99037.94;5093547;28;20040;-65
2021/08/17 02:32:33;;;;;;;14.57;11.32;;;;;;;20.13;66.79;99041.06;5092980;28;20055;-65
2021/08/17 02:34:59;;;;;;;14.07;10.52;;;;;;;20.11;67.07;99045.97;5093426;28;20040;-65
2021/08/17 02:37:25;;;;;;;17.60;10.88;;;;;;;20.07;67.22;99039.63;5092788;28;20043;-65
2021/08/17 02:39:51;;;;;;;15.70;10.82;;;;;;;20.05;66.89;99041.03;5091731;28;20040;-65
2021/08/17 02:42:17;;;;;;;17.75;15.05;;;;;;;20.04;67.01;99045.63;5075104;28;20055;-65
2021/08/17 02:44:43;;;;;;;35.65;23.85;;;;;;;20.05;67.20;99049.09;5093210;28;20142;-66
2021/08/17 02:47:09;;;;;;;26.13;19.52;;;;;;;20.01;67.16;99040.84;5092918;28;20127;-65
2021/08/17 02:49:35;;;;;;;20.77;14.32;;;;;;;20.06;66.68;99056.88;5093018;28;20044;-64
2021/08/17 02:52:04;;;;;;;17.85;12.25;;;;;;;20.12;66.43;99054.84;5092883;28;20527;-65
2021/08/17 02:54:35;;;;;;;19.25;11.00;;;;;;;20.16;66.24;99058.50;5091352;28;20048;-64
2021/08/17 02:57:02;;;;;;;14.15;11.00;;;;;;;20.21;66.13;99069.16;5092787;28;20121;-64
2021/08/17 02:59:28;;;;;;;13.10;10.88;;;;;;;20.25;66.30;99077.38;5092907;28;20044;-66
2021/08/17 03:01:54;;;;;;;14.18;10.00;;;;;;;20.27;66.14;99086.75;5092698;28;20043;-64
2021/08/17 03:04:20;;;;;;;17.90;10.52;;;;;;;20.33;66.12;99103.56;5091325;28;20040;-64
2021/08/17 03:06:46;;;;;;;14.05;10.45;;;;;;;20.36;66.34;99095.66;5092552;28;20047;-65
2021/08/17 03:09:12;;;;;;;19.25;10.80;;;;;;;20.39;66.26;99099.63;5092706;28;20040;-64
2021/08/17 03:11:39;;;;;;;14.48;10.23;;;;;;;20.36;66.04;99094.88;5092851;28;20081;-64
2021/08/17 03:14:05;;;;;;;13.27;9.07;;;;;;;20.44;65.92;99102.16;5090801;28;20214;-64
2021/08/17 03:16:32;;;;;;;14.85;10.32;;;;;;;20.34;65.29;99084.41;5092537;28;20252;-64
2021/08/17 03:18:59;;;;;;;13.60;10.05;;;;;;;20.56;65.31;99107.81;5074508;28;20036;-64
2021/08/17 03:21:25;;;;;;;14.30;10.02;;;;;;;20.63;65.35;99108.16;5092115;28;20048;-64
2021/08/17 03:23:51;;;;;;;13.85;10.20;;;;;;;20.70;65.21;99113.09;5073502;28;20105;-65
2021/08/17 03:26:17;;;;;;;15.23;10.30;;;;;;;20.74;64.96;99106.00;5091613;28;20038;-65
2021/08/17 03:28:42;;;;;;;14.18;10.05;;;;;;;20.87;64.71;99107.75;5092190;28;20048;-66
2021/08/17 03:31:08;;;;;;;12.02;9.73;;;;;;;20.99;64.30;99109.06;5090520;28;20416;-66
2021/08/17 03:33:35;;;;;;;16.67;9.73;;;;;;;21.04;63.89;99111.63;5091933;28;20529;-64
2021/08/17 03:36:04;;;;;;;13.20;8.75;;;;;;;21.12;63.46;99120.81;5091870;28;20173;-66
2021/08/17 03:38:30;;;;;;;13.55;9.63;;;;;;;21.20;63.26;99118.16;5090523;28;20040;-65
2021/08/17 03:40:56;;;;;;;12.45;8.88;;;;;;;21.27;62.85;99115.81;5090827;28;20040;-64
2021/08/17 03:43:24;;;;;;;12.70;8.70;;;;;;;21.28;62.73;99112.00;5091832;28;20055;-64
2021/08/17 03:45:51;;;;;;;13.25;8.48;;;;;;;21.23;62.47;99106.75;5091697;28;20417;-65
2021/08/17 03:48:17;;;;;;;10.80;8.50;;;;;;;21.22;62.65;99120.53;5073416;28;20090;-65
2021/08/17 03:50:45;;;;;;;12.73;10.35;;;;;;;21.26;62.69;99116.88;5091767;28;20109;-65
2021/08/17 03:53:11;;;;;;;11.93;8.32;;;;;;;21.32;62.29;99120.22;5091311;28;20048;-64
2021/08/17 03:55:38;;;;;;;11.63;9.60;;;;;;;21.40;62.07;99119.50;5091425;28;20051;-65
2021/08/17 03:58:04;;;;;;;10.15;7.95;;;;;;;21.48;62.08;99115.22;5091216;28;20044;-64
2021/08/17 04:00:34;;;;;;;;;;;;;;;21.57;61.60;99109.84;5092440;28;20036;-65
2021/08/17 04:03:00;;;;;;;8.00;7.05;;;;;;;21.59;61.46;99111.13;5090156;28;20015;-65
2021/08/17 04:05:27;;;;;;;7.03;6.30;;;;;;;21.65;61.28;99109.84;5091144;28;20044;-63
2021/08/17 04:07:53;;;;;;;8.23;6.80;;;;;;;21.73;60.68;99110.94;5091392;28;20047;-65
2021/08/17 04:10:20;;;;;;;9.57;7.20;;;;;;;21.84;60.39;99104.09;5091750;28;20051;-64
2021/08/17 04:12:46;;;;;;;9.20;6.53;;;;;;;21.80;60.77;99095.06;5091209;28;20089;-65
2021/08/17 04:15:13;;;;;;;10.55;6.78;;;;;;;21.79;60.97;99104.25;5090805;28;20169;-63
2021/08/17 04:17:39;;;;;;;7.82;6.60;;;;;;;21.73;60.85;99111.72;5091372;28;20044;-64
2021/08/17 04:20:06;;;;;;;7.13;5.82;;;;;;;21.74;61.15;99107.16;5091716;28;20378;-64
2021/08/17 04:22:32;;;;;;;12.30;7.00;;;;;;;21.73;61.10;99100.13;5091257;28;20043;-63
2021/08/17 04:24:58;;;;;;;9.10;7.20;;;;;;;21.70;61.42;99112.34;5091800;28;20048;-64
2021/08/17 04:27:24;;;;;;;14.07;6.97;;;;;;;21.63;61.73;99108.56;5091045;28;20036;-63
2021/08/17 04:29:50;;;;;;;7.65;6.82;;;;;;;21.60;62.30;99096.50;5091591;28;20089;-65
2021/08/17 04:32:16;;;;;;;10.80;6.10;;;;;;;21.56;62.15;99103.66;5091396;28;20032;-66
2021/08/17 04:34:42;;;;;;;7.47;6.15;;;;;;;21.46;62.34;99099.34;5090133;28;20131;-65
2021/08/17 04:37:08;;;;;;;10.75;5.88;;;;;;;21.42;63.10;99103.78;5093820;28;20036;-66
2021/08/17 04:39:35;;;;;;;7.60;5.93;;;;;;;21.44;63.73;99098.06;5095617;28;20054;-65
2021/08/17 04:42:03;;;;;;;7.97;6.15;;;;;;;21.41;63.18;99086.00;5095145;28;20047;-66
2021/08/17 04:44:29;;;;;;;7.47;5.93;;;;;;;21.40;63.60;99087.13;5094156;28;20055;-66
2021/08/17 04:46:55;;;;;;;8.63;5.85;;;;;;;21.33;63.71;99081.41;5095024;28;20063;-67
2021/08/17 04:49:21;;;;;;;7.78;6.35;;;;;;;21.38;63.72;99086.66;5095214;28;20127;-66
2021/08/17 04:51:47;;;;;;;6.63;4.97;;;;;;;21.42;61.96;99086.81;5093684;28;20086;-66
2021/08/17 04:54:13;;;;;;;7.22;5.85;;;;;;;21.46;62.14;99080.47;5095165;28;20056;-65
2021/08/17 04:56:39;;;;;;;6.90;5.80;;;;;;;21.43;62.43;99075.72;5094846;28;20442;-64
2021/08/17 04:59:05;;;;;;;8.55;5.60;;;;;;;21.42;63.20;99046.38;5094861;28;20044;-65
2021/08/17 05:01:30;;;;;;;8.60;5.15;;;;;;;21.24;63.00;98989.75;5093493;28;20035;-63
2021/08/17 05:03:57;;;;;;;10.60;5.85;;;;;;;21.00;64.16;98939.03;5093382;28;20044;-63
2021/08/17 05:06:23;;;;;;;8.98;5.85;;;;;;;20.90;64.99;98942.00;5094864;28;20040;-65
2021/08/17 05:08:49;;;;;;;8.85;6.43;;;;;;;20.75;66.05;98947.88;5094665;28;20055;-67
2021/08/17 05:11:15;;;;;;;7.25;5.30;;;;;;;20.68;65.78;98934.88;5094695;28;20501;-67
2021/08/17 05:13:42;;;;;;;6.95;5.28;;;;;;;20.66;66.05;98941.69;5094194;28;20108;-64
2021/08/17 05:16:08;;;;;;;8.55;5.32;;;;;;;20.70;65.47;98950.72;5094605;28;20111;-64
2021/08/17 05:18:35;;;;;;;8.02;5.38;;;;;;;20.76;65.41;98973.69;5093818;28;20048;-62
2021/08/17 05:21:01;;;;;;;7.68;6.05;;;;;;;20.83;64.82;98988.28;5094071;28;20085;-64
2021/08/17 05:23:27;;;;;;;8.25;5.88;;;;;;;20.93;65.54;98989.88;5094168;28;20131;-62
2021/08/17 05:25:53;;;;;;;8.68;6.65;;;;;;;21.03;65.45;98989.59;5093676;28;20055;-64
2021/08/17 05:28:21;;;;;;;8.88;6.30;;;;;;;21.09;65.15;98969.44;5070583;28;20127;-66
2021/08/17 05:30:47;;;;;;;9.23;6.88;;;;;;;21.08;65.72;98967.06;5072505;28;20044;-64
2021/08/17 05:33:15;;;;;;;13.77;6.82;;;;;;;21.08;65.09;98959.75;5072436;28;20221;-63
2021/08/17 05:35:43;;;;;;;8.80;6.85;;;;;;;21.12;64.65;98973.41;5072645;28;20391;-64
2021/08/17 05:38:10;;;;;;;11.85;6.55;;;;;;;21.20;64.34;98985.28;5072226;28;20043;-64
2021/08/17 05:40:36;;;;;;;10.65;6.95;;;;;;;21.35;64.18;98978.63;5073570;28;20047;-64
2021/08/17 05:43:03;;;;;;;9.07;6.75;;;;;;;21.55;63.53;98983.38;5055173;28;20041;-63
2021/08/17 05:45:29;;;;;;;9.18;6.97;;;;;;;21.67;62.95;98970.03;5072795;28;20130;-64
2021/08/17 05:47:55;;;;;;;13.30;6.80;;;;;;;21.74;63.48;98956.06;5073224;28;20132;-63
2021/08/17 05:50:21;;;;;;;17.95;7.35;;;;;;;21.77;63.66;98952.72;5074065;28;20127;-63
2021/08/17 05:52:47;;;;;;;13.85;8.15;;;;;;;21.82;63.11;98954.44;5049283;28;20128;-64
2021/08/17 05:55:14;;;;;;;23.08;8.88;;;;;;;21.83;62.95;98958.75;5070607;28;20485;-62
2021/08/17 05:57:40;;;;;;;14.05;6.97;;;;;;;21.93;62.67;98958.38;5066474;28;20037;-62
2021/08/17 06:00:13;;;;;;;15.32;7.50;;;;;;;22.03;62.72;98952.66;5068244;28;20517;-63
2021/08/17 06:02:40;;;;;;;22.02;8.77;;;;;;;22.10;62.02;98960.22;5067958;28;20033;-63
2021/08/17 06:05:07;;;;;;;19.95;8.98;;;;;;;22.16;61.97;98962.41;5070129;28;20524;-61
2021/08/17 06:07:36;;;;;;;17.13;8.45;;;;;;;22.33;61.50;98971.59;5068734;28;20040;-62
2021/08/17 06:10:04;;;;;;;18.20;8.23;;;;;;;22.49;60.87;98971.81;5069527;28;20059;-63
2021/08/17 06:12:30;;;;;;;19.67;8.07;;;;;;;22.65;60.72;98970.16;5069522;28;20051;-64
2021/08/17 06:14:56;;;;;;;21.42;8.00;;;;;;;22.86;60.09;98965.56;5035317;28;20068;-62
2021/08/17 06:17:23;;;;;;;11.55;7.78;;;;;;;23.07;58.54;98972.91;5068508;28;20044;-63
2021/08/17 06:19:50;;;;;;;19.02;8.40;;;;;;;23.26;57.84;98975.13;5067112;28;20051;-62
2021/08/17 06:22:36;;;;;;;11.32;7.60;;;;;;;23.47;57.53;98978.59;5031855;28;20207;-61
2021/08/17 06:25:03;;;;;;;14.25;8.40;;;;;;;23.57;56.41;98977.38;4997014;28;20107;-62
2021/08/17 06:27:29;;;;;;;22.02;9.05;;;;;;;23.75;56.49;98976.09;5012528;28;20515;-63
2021/08/17 06:29:55;;;;;;;19.75;8.18;;;;;;;24.03;55.12;98984.41;5046176;28;20073;-61
2021/08/17 06:32:21;;;;;;;17.88;8.00;;;;;;;24.23;54.22;98977.28;5030591;28;20079;-62
2021/08/17 06:34:47;;;;;;;14.35;7.90;;;;;;;24.54;53.14;98984.09;5013213;28;20166;-63
2021/08/17 06:37:13;;;;;;;12.50;7.28;;;;;;;24.65;53.09;98998.78;5046996;28;20658;-61
2021/08/17 06:39:40;;;;;;;12.15;7.50;;;;;;;24.81;54.28;99004.28;5030388;28;20733;-62
2021/08/17 06:42:06;;;;;;;14.27;7.03;;;;;;;25.10;53.36;99016.75;5044360;28;20147;-62
2021/08/17 06:44:32;;;;;;;18.63;7.88;;;;;;;25.27;51.21;99020.38;5046297;28;20052;-62
2021/08/17 06:47:00;;;;;;;14.27;8.20;;;;;;;25.38;51.98;99027.69;5047930;28;20049;-62
2021/08/17 06:49:27;;;;;;;12.80;6.85;;;;;;;25.47;52.74;99032.16;5047034;28;20554;-62
2021/08/17 06:51:59;;;;;;;11.30;6.88;;;;;;;25.40;53.50;99032.75;5047444;28;20045;-63
2021/08/17 06:54:28;;;;;;;10.57;7.20;;;;;;;25.28;53.72;99027.38;5066638;28;20139;-63
2021/08/17 06:56:58;;;;;;;11.15;6.63;;;;;;;25.30;53.78;99019.69;5069608;28;20044;-62
2021/08/17 06:59:24;;;;;;;11.82;6.75;;;;;;;25.54;53.35;99026.94;5067664;28;20055;-61
2021/08/17 07:01:49;;;;;;;9.15;6.25;;;;;;;25.86;52.46;99027.03;5069195;28;20048;-61
2021/08/17 07:04:15;;;;;;;13.55;6.47;;;;;;;25.92;52.18;99026.44;5067392;28;20071;-61
2021/08/17 07:06:41;;;;;;;12.82;7.20;;;;;;;25.97;52.39;99023.47;5069195;28;20453;-61
2021/08/17 07:09:08;;;;;;;14.75;6.85;;;;;;;26.06;52.38;99023.31;5068775;28;20047;-61
2021/08/17 07:11:34;;;;;;;10.82;6.45;;;;;;;26.33;52.43;99024.34;5067212;28;20086;-62
2021/08/17 07:14:00;;;;;;;14.68;7.30;;;;;;;26.41;50.88;99017.94;5069182;28;20056;-62
2021/08/17 07:16:36;;;;;;;11.68;7.20;;;;;;;26.29;50.37;99026.97;5066453;28;20056;-62
2021/08/17 07:19:05;;;;;;;9.65;6.93;;;;;;;26.08;50.89;99012.84;5049483;28;20044;-62
2021/08/17 07:21:34;;;;;;;;;;;;;;;25.93;51.59;99017.13;5066850;28;20108;-63
2021/08/17 07:24:02;;;;;;;10.07;6.55;;;;;;;25.79;52.17;99016.72;5067124;28;19932;-62
2021/08/17 07:26:28;;;;;;;10.15;6.53;;;;;;;25.73;52.35;99020.84;5066438;28;20051;-64
2021/08/17 07:28:54;;;;;;;14.38;7.50;;;;;;;25.72;52.91;99027.41;5068764;28;20103;-62
2021/08/17 07:31:19;;;;;;;11.40;7.22;;;;;;;25.73;52.53;99009.97;5068495;28;20051;-61
2021/08/17 07:33:45;;;;;;;11.77;7.53;;;;;;;25.77;52.68;99024.44;5070178;28;20082;-64
2021/08/17 07:36:11;;;;;;;11.50;8.38;;;;;;;25.75;52.14;99010.44;5068417;28;20410;-64
2021/08/17 07:38:37;;;;;;;13.07;8.00;;;;;;;25.66;51.61;99032.31;5052266;28;20075;-62
2021/08/17 07:41:03;;;;;;;13.50;8.55;;;;;;;25.61;51.67;99024.41;5069904;28;20064;-63
2021/08/17 07:43:32;;;;;;;12.47;7.73;;;;;;;25.61;52.51;99027.13;5068127;28;20040;-61
2021/08/17 07:46:04;;;;;;;14.10;7.80;;;;;;;25.58;52.43;99028.59;5066254;28;20325;-61
2021/08/17 07:48:41;;;;;;;15.23;8.13;;;;;;;25.59;52.05;99027.47;5078637;28;20044;-64
2021/08/17 07:51:07;;;;;;;14.00;8.43;;;;;;;25.67;52.38;99031.16;5089937;28;20505;-63
2021/08/17 07:53:34;;;;;;;15.80;8.15;;;;;;;25.71;53.34;99037.50;5089881;28;20044;-62
2021/08/17 07:56:00;;;;;;;13.00;7.65;;;;;;;25.83;53.20;99039.38;5089674;28;20166;-63
2021/08/17 07:58:28;;;;;;;14.38;7.82;;;;;;;25.87;52.98;99029.38;5089316;28;20059;-64
2021/08/17 08:00:57;;;;;;;12.85;7.63;;;;;;;25.87;53.10;99032.09;5088768;28;20382;-64
2021/08/17 08:03:23;;;;;;;13.45;8.02;;;;;;;25.94;53.00;99031.50;5089935;28;20444;-65
2021/08/17 08:05:49;;;;;;;15.45;7.78;;;;;;;25.90;51.82;99020.56;5071582;28;20043;-66
2021/08/17 08:08:17;;;;;;;11.15;8.27;;;;;;;25.98;51.16;99024.25;5090137;28;20040;-65
2021/08/17 08:10:46;;;;;;;12.98;8.52;;;;;;;25.86;51.32;99029.75;5085749;28;20039;-66
2021/08/17 08:13:12;;;;;;;12.48;7.57;;;;;;;25.83;50.70;99023.88;5087637;28;20040;-64
2021/08/17 08:15:40;;;;;;;14.77;7.80;;;;;;;25.92;53.08;99026.44;5086146;28;20046;-64
2021/08/17 08:18:06;;;;;;;14.02;7.72;;;;;;;26.01;52.13;99023.56;5087899;28;20119;-64
2021/08/17 08:20:32;;;;;;;15.52;8.13;;;;;;;26.05;51.34;99027.13;5069086;28;20036;-65
2021/08/17 08:22:58;;;;;;;15.98;8.55;;;;;;;26.08;50.33;99026.44;5087454;28;20071;-65
2021/08/17 08:25:24;;;;;;;15.60;8.20;;;;;;;26.05;50.08;99022.50;5086616;28;20036;-67
2021/08/17 08:27:50;;;;;;;11.32;7.80;;;;;;;26.04;50.70;99029.06;5087987;28;20047;-64
2021/08/17 08:30:16;;;;;;;14.48;7.80;;;;;;;26.05;50.51;99021.69;5087432;28;20074;-63
2021/08/17 08:32:42;;;;;;;14.90;8.40;;;;;;;26.06;50.59;99012.44;5088359;28;20067;-64
2021/08/17 08:35:09;;;;;;;12.75;8.57;;;;;;;26.15;49.78;99017.66;5070401;28;20044;-64
2021/08/17 08:37:35;;;;;;;14.40;8.35;;;;;;;26.26;48.50;99013.28;5088463;28;20036;-65
2021/08/17 08:40:05;;;;;;;;;;;;;;;26.29;48.47;99016.09;5087100;28;20036;-65
2021/08/17 08:42:31;;;;;;;14.10;8.13;;;;;;;26.21;49.75;99011.66;5089366;28;20666;-65
2021/08/17 08:44:59;;;;;;;15.73;8.25;;;;;;;26.24;49.42;99015.59;5086411;28;20048;-66
2021/08/17 08:47:26;;;;;;;20.77;8.48;;;;;;;26.29;49.02;99021.53;5088735;28;20036;-65
2021/08/17 08:49:52;;;;;;;11.57;8.13;;;;;;;26.27;48.95;99023.03;5071209;28;20044;-63
2021/08/17 08:52:19;;;;;;;13.48;8.80;;;;;;;26.29;49.21;99018.81;5088805;28;20056;-64
2021/08/17 08:54:45;;;;;;;14.73;9.45;;;;;;;26.36;48.93;99017.44;5087277;28;20040;-65
2021/08/17 08:57:11;;;;;;;15.38;9.00;;;;;;;26.36;49.05;99010.06;5089819;28;20513;-64
2021/08/17 08:59:39;;;;;;;15.57;8.88;;;;;;;26.37;49.13;99010.84;5089415;28;20144;-64
2021/08/17 09:02:08;;;;;;;13.40;9.48;;;;;;;26.35;49.68;99010.41;5087660;28;20044;-65
2021/08/17 09:04:35;;;;;;;17.83;9.23;;;;;;;26.38;49.61;99006.97;5085294;28;20042;-64
2021/08/17 09:07:01;;;;;;;13.90;8.98;;;;;;;26.50;49.03;99009.63;5088882;28;20562;-67
2021/08/17 09:09:29;;;;;;;12.57;8.98;;;;;;;26.54;48.94;99012.44;5087733;28;20044;-65
2021/08/17 09:11:56;;;;;;;16.90;9.32;;;;;;;26.56;49.46;99012.84;5088189;28;20044;-64
2021/08/17 09:14:27;;;;;;;15.80;9.00;;;;;;;26.54;49.52;99005.06;5087355;28;20064;-63
2021/08/17 09:17:02;;;;;;;20.95;9.02;;;;;;;26.62;49.67;99004.09;5068066;28;20044;-64
2021/08/17 09:19:30;;;;;;;13.75;8.48;;;;;;;26.74;49.09;99005.91;5066599;28;20045;-64
2021/08/17 09:22:13;;;;;;;13.23;9.18;;;;;;;26.86;48.67;99005.00;5069938;28;20041;-64
2021/08/17 09:24:39;;;;;;;14.65;8.93;;;;;;;26.91;48.84;98997.38;5070580;28;20403;-64
2021/08/17 09:27:13;;;;;;;15.18;9.18;;;;;;;26.98;47.53;98995.94;5070024;28;21079;-65
2021/08/17 09:29:41;;;;;;;15.65;9.23;;;;;;;27.05;47.19;98993.34;5070906;28;20041;-65
2021/08/17 09:32:23;;;;;;;14.82;8.70;;;;;;;27.09;46.84;98986.84;5076263;28;20108;-64
2021/08/17 09:34:56;;;;;;;16.25;9.10;;;;;;;27.16;46.66;98994.41;5056241;28;20041;-65
2021/08/17 09:37:29;;;;;;;14.77;9.55;;;;;;;27.20;46.95;98980.88;5072752;28;20044;-64
2021/08/17 09:39:55;;;;;;;23.02;10.10;;;;;;;27.26;46.22;98982.94;5070373;28;20310;-64
2021/08/17 09:42:24;;;;;;;22.77;8.73;;;;;;;27.34;44.92;98978.44;5071062;28;20060;-65
2021/08/17 09:45:10;;;;;;;17.90;9.57;;;;;;;27.42;44.39;98982.09;5072152;28;20128;-65
2021/08/17 09:47:40;;;;;;;16.60;9.70;;;;;;;27.50;44.40;98986.50;5070941;28;20582;-66
2021/08/17 09:50:17;;;;;;;;;;;;;;;27.59;44.36;98981.59;5069656;28;20060;-66
2021/08/17 09:52:47;;;;;;;16.08;9.35;;;;;;;27.58;43.48;98969.94;5071231;28;20447;-65
2021/08/17 09:55:20;;;;;;;17.40;8.35;;;;;;;27.62;43.36;98970.03;5079699;28;20421;-65
2021/08/17 09:57:48;;;;;;;11.40;8.10;;;;;;;27.69;43.79;98963.91;5071409;28;20502;-64
2021/08/17 10:00:15;;;;;;;11.45;8.80;;;;;;;27.73;43.49;98959.31;5071689;28;20083;-66
2021/08/17 10:02:47;;;;;;;16.80;9.10;;;;;;;27.77;43.81;98960.16;5072683;28;20612;-66
2021/08/17 10:05:15;;;;;;;13.68;8.55;;;;;;;27.83;43.87;98951.34;5071975;28;20140;-64
2021/08/17 10:07:43;;;;;;;16.83;8.57;;;;;;;27.89;43.87;98954.56;5069461;28;20114;-65
2021/08/17 10:10:11;;;;;;;12.50;8.55;;;;;;;27.98;42.76;98951.59;5087356;28;20075;-65
2021/08/17 10:12:37;;;;;;;14.48;8.52;;;;;;;28.05;42.49;98951.69;5070695;28;20067;-65
2021/08/17 10:15:05;;;;;;;13.23;8.55;;;;;;;28.11;43.36;98949.47;5069848;28;20154;-66
2021/08/17 10:17:31;;;;;;;11.98;8.15;;;;;;;28.15;42.42;98951.09;5070425;28;20045;-65
2021/08/17 10:19:57;;;;;;;12.77;8.88;;;;;;;28.19;42.54;98938.31;5070567;28;20058;-64
2021/08/17 10:22:24;;;;;;;19.58;8.80;;;;;;;28.25;42.82;98938.78;5069268;28;20127;-66
2021/08/17 10:24:50;;;;;;;13.57;8.68;;;;;;;28.27;42.41;98941.94;5071130;28;20121;-64
2021/08/17 10:27:36;;;;;;;17.25;8.73;;;;;;;28.29;42.24;98942.34;5071516;28;20036;-64
2021/08/17 10:30:17;;;;;;;11.38;7.80;;;;;;;28.30;41.48;98936.53;5069837;28;20503;-65
2021/08/17 10:32:46;;;;;;;14.02;8.25;;;;;;;28.34;41.89;98933.06;5069268;28;20050;-64
2021/08/17 10:35:29;;;;;;;17.47;8.97;;;;;;;28.39;43.02;98928.09;5071639;28;20117;-64
2021/08/17 10:38:15;;;;;;;11.95;8.18;;;;;;;28.43;41.44;98930.88;5070813;28;20035;-65
2021/08/17 10:40:50;;;;;;;15.68;8.93;;;;;;;28.47;41.17;98924.34;5064485;28;20048;-66
2021/08/17 10:43:32;;;;;;;10.75;8.18;;;;;;;28.50;42.42;98931.78;5070797;28;20036;-63
2021/08/17 10:46:05;;;;;;;13.15;8.13;;;;;;;28.52;41.78;98920.50;5089125;28;20418;-63
2021/08/17 10:51:18;;;;;;;13.35;8.38;;;;;;;28.57;42.13;98922.13;5077356;28;20045;-65
2021/08/17 10:54:03;;;;;;;11.52;8.23;;;;;;;28.55;41.38;98922.50;5067566;28;20634;-64
2021/08/17 10:56:36;;;;;;;11.07;8.75;;;;;;;28.63;42.08;98918.72;5067829;28;20053;-65
2021/08/17 10:59:03;;;;;;;12.90;8.57;;;;;;;28.62;41.41;98928.06;5068508;28;20194;-65
2021/08/17 11:01:35;;;;;;;12.40;8.43;;;;;;;28.65;41.97;98924.59;5082077;28;20056;-65
2021/08/17 11:04:08;;;;;;;13.60;8.52;;;;;;;28.69;42.27;98916.44;5089236;28;20317;-66
2021/08/17 11:07:25;;;;;;;13.02;8.43;;;;;;;28.72;40.97;98915.72;5071593;28;20040;-65
2021/08/17 11:09:52;;;;;;;11.32;8.93;;;;;;;28.72;41.48;98912.97;5088571;28;20285;-65
2021/08/17 11:12:18;;;;;;;13.45;8.60;;;;;;;28.76;40.99;98917.31;5087590;28;20081;-65
2021/08/17 11:14:46;;;;;;;11.13;8.68;;;;;;;28.80;40.21;98911.91;5056975;28;20057;-65
2021/08/17 11:17:17;;;;;;;13.07;9.20;;;;;;;28.85;41.25;98911.56;5068011;28;20162;-64
2021/08/17 11:19:46;;;;;;;14.15;8.60;;;;;;;28.89;41.49;98908.91;5068492;28;20052;-65
2021/08/17 11:22:18;;;;;;;10.38;8.98;;;;;;;28.82;41.60;98909.59;5068479;28;20460;-64
2021/08/17 11:24:49;;;;;;;12.05;8.75;;;;;;;28.80;41.16;98909.19;5069261;28;20053;-65
2021/08/17 11:27:41;;;;;;;13.38;9.10;;;;;;;28.87;41.10;98897.56;5067466;28;20040;-65
2021/08/17 11:30:12;;;;;;;12.50;8.70;;;;;;;28.90;40.72;98892.16;5068322;28;20131;-66